Warning: Javascript must be enabled to use all the features on this page!


Page Loading - Please Wait...

Click to hideNews Bulletins

USGS 04189260 Blanchard River at Ottawa OH

PROVISIONAL DATA SUBJECT TO REVISION

Click to hidestation-specific text
Funding for this site is provided by:

 

> WaterNow – get the latest gage data from your mobile phone or email.
> Rating Information

Want to learn more about areas near this gage that are inundated during flooding? See the USGS flood-inundation mapper.
Available Parameters Available Period
All 2 Available Parameters for this site
  
00060 Discharge 2009-10-01  2018-08-15
00065 Gage height 2018-02-07  2018-08-15

Graph
Graph w/ stats
Graph w/o stats
Graph w/ (up to 3) parms
Table
Tab-separated
Days  (7)
 

  -- or --
Begin date
 

End date
 

Summary of all available data for this site
Instantaneous-data availability statement
Gage height, feet
TIMEAug 8Aug 9Aug 10Aug 11Aug 12Aug 13Aug 14Aug 15
00:00 EDT5.17P  5.81P  5.36P  5.32P  5.11P  5.08P  4.83P  4.68P  
00:30 EDT5.17P  5.79P  5.37P  5.31P  5.10P  5.09P  4.82P  4.67P  
01:00 EDT5.18P  5.78P  5.39P  5.31P  5.10P  5.10P  4.81P  4.67P  
01:30 EDT5.20P  5.76P  5.39P  5.30P  5.10P  5.10P  4.81P  4.67P  
02:00 EDT5.23P  5.75P  5.40P  5.30P  5.09P  5.11P  4.81P  4.67P  
02:30 EDT5.28P  5.73P  5.41P  5.29P  5.09P  5.11P  4.80P  4.66P  
03:00 EDT5.35P  5.72P  5.42P  5.28P  5.09P  5.12P  4.80P  4.66P  
03:30 EDT5.44P  5.70P  5.43P  5.28P  5.08P  5.12P  4.79P  4.66P  
04:00 EDT5.53P  5.69P  5.44P  5.28P  5.08P  5.12P  4.79P  4.66P  
04:30 EDT5.62P  5.67P  5.44P  5.27P  5.08P  5.12P  4.79P  4.65P  
05:00 EDT5.70P  5.66P  5.45P  5.27P  5.07P  5.12P  4.78P  4.65P  
05:30 EDT5.77P  5.64P  5.45P  5.26P  5.07P  5.12P  4.78P  4.65P  
06:00 EDT5.83P  5.63P  5.46P  5.25P  5.07P  5.12P  4.78P  4.65P  
06:30 EDT5.89P  5.61P  5.46P  5.25P  5.07P  5.12P  4.77P  4.64P  
07:00 EDT5.93P  5.60P  5.47P  5.24P  5.06P  5.12P  4.77P  4.64P  
07:30 EDT5.98P  5.58P  5.47P  5.24P  5.06P  5.12P  4.77P  4.64P  
08:00 EDT6.01P  5.57P  5.47P  5.23P  5.06P  5.11P  4.76P  4.64P  
08:30 EDT6.04P  5.56P  5.47P  5.23P  5.06P  5.11P  4.76P  4.64P  
09:00 EDT6.07P  5.54P  5.47P  5.22P  5.05P  5.11P  4.76P  4.63P  
09:30 EDT6.09P  5.53P  5.47P  5.22P  5.05P  5.10P  4.76P  4.63P  
10:00 EDT6.10P  5.52P  5.47P  5.22P  5.05P  5.10P  4.75P  4.63P  
10:30 EDT6.11P  5.51P  5.47P  5.21P  5.04P  5.09P  4.75P  4.63P  
11:00 EDT6.12P  5.50P  5.47P  5.21P  5.04P  5.08P  4.75P  4.63P  
11:30 EDT6.12P  5.48P  5.46P  5.20P  5.04P  5.06P  4.75P  4.63P  
12:00 EDT6.12P  5.47P  5.46P  5.20P  5.03P  5.05P  4.74P  4.63P  
12:30 EDT6.12P  5.46P  5.45P  5.19P  5.03P  5.03P  4.74P  4.63P  
13:00 EDT6.12P  5.45P  5.45P  5.19P  5.03P  5.02P  4.74P  4.63P  
13:30 EDT6.12P  5.44P  5.44P  5.19P  5.02P  5.00P  4.73P  4.63P  
14:00 EDT6.11P  5.43P  5.44P  5.18P  5.02P  4.99P  4.73P  4.63P  
14:30 EDT6.10P  5.42P  5.43P  5.18P  5.02P  4.98P  4.73P  4.63P  
15:00 EDT6.09P  5.41P  5.42P  5.17P  5.02P  4.97P  4.73P  4.64P  
15:30 EDT6.08P  5.40P  5.42P  5.17P  5.01P  4.96P  4.72P  4.64P  
16:00 EDT6.06P  5.39P  5.41P  5.17P  5.01P  4.94P  4.72P  4.65P  
16:30 EDT6.05P  5.38P  5.41P  5.16P  5.01P  4.93P  4.72P  4.66P  
17:00 EDT6.06P  5.38P  5.40P  5.16P  5.01P  4.92P  4.72P  4.67P  
17:30 EDT6.04P  5.37P  5.40P  5.15P  5.00P  4.92P  4.71P  4.68P  
18:00 EDT6.02P  5.37P  5.39P  5.15P  5.00P  4.91P  4.71P  4.69P  
18:30 EDT6.01P  5.36P  5.38P  5.15P  5.00P  4.90P  4.71P  4.70P  
19:00 EDT5.99P  5.36P  5.37P  5.14P  5.00P  4.89P  4.71P  4.71P  
19:30 EDT5.97P  5.35P  5.37P  5.14P  5.00P  4.88P  4.70P  4.72P  
20:00 EDT5.95P  5.35P  5.36P  5.13P  5.00P  4.88P  4.70P  4.73P  
20:30 EDT5.93P  5.34P  5.36P  5.13P  5.01P  4.87P  4.70P  4.74P  
21:00 EDT5.92P  5.34P  5.35P  5.13P  5.02P  4.86P  4.70P  4.74P  
21:30 EDT5.90P  5.34P  5.35P  5.12P  5.03P  4.86P  4.69P  4.75P  
22:00 EDT5.88P  5.34P  5.34P  5.12P  5.04P  4.85P  4.69P  4.75P  
22:30 EDT5.86P  5.34P  5.33P  5.12P  5.05P  4.84P  4.69P  4.76P  
23:00 EDT5.84P  5.35P  5.33P  5.11P  5.06P  4.84P  4.68P   
23:30 EDT5.83P  5.35P  5.32P  5.11P  5.07P  4.83P  4.68P   
COUNT4848484848484846
MAX6.125.815.475.325.115.124.834.76
MIN5.175.345.325.115.004.834.684.63

Explanation
  P  Provisional data subject to revision.